Terminal Aerodrome Forecast
Issued by NWS

Home | Current Version | Previous Version | Text Only | Print | Product List | Glossary On
Versions: 1 2 3 4 5 6 7 8 9 10 11 12 13 14 15 16
369
FTUS44 KEWX 222321
TAFSSF
TAF
KSSF 222321Z 2300/2324 13007KT P6SM FEW060
     FM230700 20003KT P6SM SCT015
     FM231900 12005KT P6SM SCT050=

USA.gov is the U.S. government's official web portal to all federal, state and local government web resources and services.